Time;durP1;ratioP1;P1;durP2;ratioP2;P2;SDS_P1;SDS_P2;PMS_P1;PMS_P2;Temp;Humidity;BMP_temperature;BMP_pressure;BME280_temperature;BME280_humidity;BME280_pressure;Samples;Min_cycle;Max_cycle;Signal;HPM_P1;HPM_P2
2021/09/30 00:00:51;;;;;;;2.08;1.90;;;10.30;99.90;;;11.07;86.95;98976.19;5149455;28;20203;-58
2021/09/30 00:03:25;;;;;;;2.25;2.15;;;10.30;99.90;;;11.09;86.56;98974.63;5135541;28;20207;-58
2021/09/30 00:05:59;;;;;;;2.38;2.20;;;10.40;99.90;;;11.03;86.56;98972.50;5143115;28;20234;-58
2021/09/30 00:08:32;;;;;;;2.13;1.92;;;10.30;99.90;;;11.03;86.50;98976.75;5138323;28;20554;-56
2021/09/30 00:11:09;;;;;;;1.83;1.70;;;10.30;99.90;;;11.03;86.72;98976.75;5150146;28;20314;-59
2021/09/30 00:13:47;;;;;;;2.40;2.28;;;10.30;99.90;;;10.96;86.96;98971.94;5136831;28;20203;-58
2021/09/30 00:16:36;;;;;;;2.13;1.90;;;10.30;99.90;;;10.93;86.99;98976.84;5142775;28;20242;-59
2021/09/30 00:33:31;;;;;;;2.25;2.10;;;9.90;99.90;;;10.59;86.91;98988.03;5144834;28;20204;-58
2021/09/30 00:36:12;;;;;;;1.90;1.80;;;9.80;99.90;;;10.55;87.64;98982.56;5143155;28;20200;-60
2021/09/30 00:41:46;;;;;;;2.33;2.13;;;9.70;99.90;;;10.45;86.32;98991.22;5142834;28;20604;-60
2021/09/30 00:47:19;;;;;;;1.83;1.67;;;9.60;99.90;;;10.30;86.73;98985.84;5160438;28;20205;-60
2021/09/30 00:50:05;;;;;;;2.42;2.22;;;9.60;99.90;;;10.31;88.04;98981.59;5153600;28;20191;-58
2021/09/30 00:52:44;;;;;;;2.58;2.38;;;9.60;99.90;;;10.26;88.41;98983.75;5146356;28;20231;-59
2021/09/30 00:55:51;;;;;;;2.17;1.98;;;9.50;99.90;;;10.22;88.89;98991.09;5140191;28;20196;-60
2021/09/30 01:19:41;;;;;;;2.13;1.93;;;9.10;99.90;;;9.86;87.97;99007.91;5149775;28;20204;-60
2021/09/30 01:40:15;;;;;;;1.97;1.80;;;9.00;99.90;;;9.66;87.69;99016.53;5147340;28;20671;-59
2021/09/30 02:20:56;;;;;;;3.30;2.23;;;8.30;99.90;;;8.95;88.07;99038.91;5150130;28;20196;-56
2021/09/30 02:26:41;;;;;;;2.20;2.10;;;8.20;99.90;;;8.86;88.55;99040.69;5145868;28;20224;-56
2021/09/30 02:29:32;;;;;;;2.10;2.00;;;8.20;99.90;;;8.80;88.44;99043.63;5144406;28;20208;-59
2021/09/30 02:58:28;;;;;;;3.37;2.20;;;7.90;99.90;;;8.50;87.61;99053.84;5152498;28;20211;-58
2021/09/30 03:01:07;;;;;;;2.57;2.37;;;7.80;99.90;;;8.51;87.20;99045.41;5153641;28;20226;-60
2021/09/30 03:03:42;;;;;;;2.20;2.10;;;7.70;99.90;;;8.44;87.40;99056.75;5140583;28;20200;-57
2021/09/30 03:06:16;;;;;;;2.57;2.37;;;7.70;99.90;;;8.35;87.65;99054.28;5145182;28;20310;-59
2021/09/30 03:08:56;;;;;;;2.70;2.50;;;7.60;99.90;;;8.37;87.74;99056.06;5157864;28;20606;-57
2021/09/30 03:11:36;;;;;;;2.80;2.60;;;7.60;99.90;;;8.37;88.05;99059.50;5149505;28;20691;-57
2021/09/30 03:14:10;;;;;;;2.53;2.33;;;7.60;99.90;;;8.30;88.41;99063.19;5144364;28;20208;-59
2021/09/30 03:16:47;;;;;;;2.60;2.50;;;7.50;99.90;;;8.28;89.25;99056.19;5144819;28;20202;-59
2021/09/30 03:19:37;;;;;;;2.47;2.37;;;7.60;99.90;;;8.26;89.40;99063.66;5157387;28;20207;-59
2021/09/30 03:22:15;;;;;;;3.67;2.60;;;7.60;99.90;;;8.21;89.38;99066.59;5144847;28;20235;-57
2021/09/30 03:24:51;;;;;;;2.53;2.40;;;7.50;99.90;;;8.18;89.73;99073.97;5143496;28;20214;-54
2021/09/30 03:27:27;;;;;;;2.53;2.33;;;7.50;99.90;;;8.08;87.98;99078.28;5144088;28;20538;-59
2021/09/30 03:30:00;;;;;;;2.70;2.50;;;7.40;99.90;;;8.07;88.62;99085.78;5157079;28;20222;-57
2021/09/30 03:32:33;;;;;;;3.33;2.70;;;7.40;99.90;;;8.07;88.44;99086.69;5159665;28;20226;-57
2021/09/30 03:35:07;;;;;;;3.90;2.40;;;7.30;99.90;;;8.09;88.49;99069.84;5141943;28;20204;-56
2021/09/30 03:37:40;;;;;;;2.80;2.30;;;7.40;99.90;;;8.09;88.90;99079.16;5152810;28;20196;-56
2021/09/30 03:40:13;;;;;;;3.00;2.10;;;7.40;99.90;;;8.05;89.02;99072.03;5144180;28;20201;-56
2021/09/30 03:42:48;;;;;;;2.87;2.43;;;7.40;99.90;;;8.00;89.62;99070.72;5153177;28;20223;-58
2021/09/30 03:45:21;;;;;;;2.50;2.30;;;7.30;99.90;;;8.10;89.70;99071.66;5145167;28;20656;-59
2021/09/30 03:47:55;;;;;;;2.70;2.50;;;7.40;99.90;;;8.03;89.53;99078.63;5142234;28;20212;-54
2021/09/30 03:50:31;;;;;;;2.40;2.20;;;7.40;99.90;;;8.04;89.15;99071.16;5144186;28;20203;-58
2021/09/30 03:53:09;;;;;;;2.47;2.33;;;7.40;99.90;;;7.99;89.45;99077.47;5152937;28;20227;-55
2021/09/30 03:55:57;;;;;;;2.73;2.20;;;7.30;99.90;;;7.89;88.79;99080.88;5144569;28;20324;-55
2021/09/30 04:01:26;;;;;;;2.43;2.30;;;7.20;99.90;;;7.84;89.43;99082.16;5140440;28;20231;-56
2021/09/30 04:04:00;;;;;;;2.53;2.40;;;7.20;99.90;;;7.84;88.98;99086.31;5140908;28;20680;-60
2021/09/30 04:06:33;;;;;;;2.40;2.27;;;7.20;99.90;;;7.78;89.09;99085.78;5160323;28;20223;-59
2021/09/30 04:09:06;;;;;;;3.33;1.93;;;7.20;99.90;;;7.78;88.41;99090.88;5153890;28;20203;-60
2021/09/30 04:11:41;;;;;;;2.67;2.47;;;7.10;99.90;;;7.75;89.03;99085.50;5143595;28;20231;-57
2021/09/30 04:14:15;;;;;;;2.67;2.57;;;7.00;99.90;;;7.76;88.24;99092.41;5141861;28;20196;-59
2021/09/30 04:16:48;;;;;;;2.33;2.23;;;7.10;99.90;;;7.74;88.15;99093.91;5144061;28;20205;-59
2021/09/30 04:19:23;;;;;;;2.67;2.47;;;7.00;99.90;;;7.67;89.44;99095.03;5158355;28;20202;-59
2021/09/30 04:21:57;;;;;;;2.50;2.40;;;7.00;99.90;;;7.64;88.49;99095.66;5147402;28;20678;-60
2021/09/30 04:24:30;;;;;;;2.90;2.60;;;7.00;99.90;;;7.63;88.15;99093.84;5141754;28;20203;-60
2021/09/30 04:27:03;;;;;;;2.70;2.50;;;6.90;99.90;;;7.64;88.25;99100.75;5149941;28;20226;-60
2021/09/30 04:29:38;;;;;;;2.70;2.50;;;6.90;99.90;;;7.61;88.06;99097.94;5159316;28;20286;-57
2021/09/30 04:32:11;;;;;;;2.30;2.10;;;6.90;99.90;;;7.53;88.00;99101.44;5137893;28;20233;-56
2021/09/30 04:34:44;;;;;;;2.83;2.30;;;6.90;99.90;;;7.51;89.09;99108.03;5146270;28;20219;-57
2021/09/30 04:37:17;;;;;;;2.77;2.57;;;6.90;99.90;;;7.51;88.94;99110.59;5140164;28;20196;-59
2021/09/30 04:39:51;;;;;;;2.97;2.33;;;6.80;99.90;;;7.52;88.80;99114.91;5140113;28;20204;-57
2021/09/30 04:42:24;;;;;;;2.23;2.03;;;6.80;99.90;;;7.42;88.43;99115.75;5143558;28;20309;-57
2021/09/30 04:44:59;;;;;;;2.10;2.00;;;6.70;99.90;;;7.31;88.07;99110.47;5144618;28;20199;-58
2021/09/30 04:47:32;;;;;;;2.43;2.30;;;6.50;99.90;;;7.24;87.96;99111.56;5147337;28;20310;-59
2021/09/30 04:50:07;;;;;;;3.90;2.50;;;6.40;99.90;;;6.99;87.54;99122.03;5141248;28;20204;-59
2021/09/30 04:52:40;;;;;;;2.53;2.37;;;6.20;99.90;;;6.84;88.64;99112.09;5138043;28;20251;-60
2021/09/30 04:55:13;;;;;;;2.43;2.23;;;6.10;99.90;;;6.86;89.06;99123.31;5139590;28;20287;-57
2021/09/30 04:57:46;;;;;;;2.70;2.50;;;6.10;99.90;;;6.89;89.78;99118.50;5138860;28;20288;-57
2021/09/30 05:00:20;;;;;;;2.40;2.20;;;6.20;99.90;;;6.95;89.83;99120.00;5138602;28;20199;-57
2021/09/30 05:02:53;;;;;;;2.60;2.50;;;6.30;99.90;;;6.96;90.04;99113.25;5141893;28;20231;-56
2021/09/30 05:05:26;;;;;;;2.80;2.50;;;6.30;99.90;;;6.98;90.50;99114.25;5140140;28;20608;-57
2021/09/30 05:07:59;;;;;;;2.83;2.63;;;6.30;99.90;;;7.03;90.18;99112.16;5141811;28;20302;-56
2021/09/30 05:10:33;;;;;;;2.30;2.20;;;6.40;99.90;;;7.05;89.40;99109.00;5142947;28;20641;-57
2021/09/30 05:13:08;;;;;;;2.73;2.63;;;6.40;99.90;;;7.00;89.40;99110.22;5138665;28;20319;-57
2021/09/30 05:15:43;;;;;;;2.83;2.70;;;6.40;99.90;;;6.98;89.93;99117.72;5141352;28;20334;-57
2021/09/30 05:18:16;;;;;;;3.43;2.73;;;6.40;99.90;;;7.08;89.71;99121.97;5141427;28;20200;-57
2021/09/30 05:20:49;;;;;;;2.83;2.63;;;6.50;99.90;;;7.14;89.07;99124.19;5140478;28;20212;-56
2021/09/30 05:23:23;;;;;;;2.73;2.27;;;6.50;99.90;;;7.14;88.88;99130.16;5135879;28;20200;-57
2021/09/30 05:25:56;;;;;;;2.30;2.10;;;6.50;99.90;;;7.15;88.31;99131.06;5141753;28;20294;-58
2021/09/30 05:28:29;;;;;;;2.97;2.77;;;6.50;99.90;;;7.14;88.72;99124.19;5137057;28;20246;-56
2021/09/30 05:31:04;;;;;;;3.23;2.97;;;6.50;99.90;;;7.15;88.69;99129.44;5147672;28;20699;-56
2021/09/30 05:33:37;;;;;;;2.73;2.53;;;6.50;99.90;;;7.24;88.03;99134.44;5146011;28;20192;-56
2021/09/30 05:36:10;;;;;;;2.53;2.43;;;6.50;99.90;;;7.17;87.95;99138.06;5142875;28;20205;-55
2021/09/30 05:38:43;;;;;;;2.90;2.73;;;6.50;99.90;;;7.15;88.89;99139.59;5151851;28;20196;-58
2021/09/30 05:41:17;;;;;;;2.90;2.70;;;6.40;99.90;;;7.22;88.64;99147.00;5137636;28;20256;-55
2021/09/30 05:43:52;;;;;;;2.70;2.50;;;6.50;99.90;;;7.29;88.92;99137.41;5132777;28;20239;-54
2021/09/30 05:46:36;;;;;;;2.60;2.50;;;6.60;99.90;;;7.29;89.08;99138.28;5133022;28;20218;-57
2021/09/30 05:49:10;;;;;;;2.60;2.40;;;6.60;99.90;;;7.30;88.00;99141.75;5142670;28;20584;-58
2021/09/30 05:51:43;;;;;;;2.50;2.40;;;6.60;99.90;;;7.22;89.31;99139.38;5140387;28;20656;-58
2021/09/30 05:54:17;;;;;;;9.93;8.77;;;6.60;99.90;;;7.29;88.86;99145.03;5149067;28;20227;-57
2021/09/30 05:56:50;;;;;;;3.83;3.53;;;6.60;99.90;;;7.28;89.11;99135.63;5148692;28;20208;-57
2021/09/30 05:59:23;;;;;;;3.30;3.10;;;6.60;99.90;;;7.33;89.10;99136.94;5152353;28;20219;-53
2021/09/30 06:10:50;;;;;;;2.63;2.40;;;7.20;99.90;;;8.43;85.80;99141.56;5137415;28;20692;-57
2021/09/30 06:13:28;;;;;;;2.60;2.40;;;7.50;99.90;;;8.59;83.73;99140.34;5143729;28;20231;-56
2021/09/30 06:16:06;;;;;;;2.50;2.40;;;7.60;99.90;;;8.96;83.73;99140.16;5144579;28;20206;-56
2021/09/30 06:18:41;;;;;;;3.00;2.90;;;8.00;99.90;;;9.39;81.42;99151.38;5145437;28;20219;-59
2021/09/30 06:21:14;;;;;;;3.17;2.97;;;8.30;99.90;;;9.63;79.40;99147.38;5143271;28;20307;-58
2021/09/30 06:23:47;;;;;;;3.20;3.00;;;8.50;99.90;;;9.93;78.37;99140.41;5144853;28;20307;-59
2021/09/30 06:26:20;;;;;;;3.00;2.80;;;8.60;99.90;;;10.44;76.81;99147.00;5144536;28;20226;-57
2021/09/30 06:28:53;;;;;;;3.30;3.07;;;8.80;99.90;;;10.90;75.34;99148.00;5143036;28;20690;-55
2021/09/30 06:31:26;;;;;;;4.80;3.60;;;9.10;99.90;;;11.15;73.41;99149.06;5146015;28;20307;-56
2021/09/30 06:34:01;;;;;;;4.13;3.42;;;9.40;99.90;;;11.54;72.77;99150.28;5143610;28;20211;-55
2021/09/30 06:36:34;;;;;;;4.00;3.75;;;9.60;99.90;;;11.91;70.49;99153.03;5142374;28;20199;-57
2021/09/30 06:39:08;;;;;;;3.10;2.80;;;9.90;99.90;;;12.33;69.18;99149.16;5143855;28;20184;-57
2021/09/30 06:41:41;;;;;;;2.30;2.20;;;10.20;99.90;;;12.48;67.52;99154.53;5138925;28;20222;-58
2021/09/30 06:44:23;;;;;;;2.70;2.47;;;10.40;99.90;;;12.47;67.60;99153.59;5139615;28;20204;-57
2021/09/30 06:46:56;;;;;;;3.58;3.28;;;10.50;99.90;;;12.53;67.99;99161.75;5147068;28;20208;-56
2021/09/30 06:49:30;;;;;;;3.42;2.42;;;10.50;99.90;;;12.56;68.44;99163.63;5148858;28;20322;-57
2021/09/30 06:52:04;;;;;;;3.78;2.35;;;10.80;99.90;;;12.62;67.24;99164.97;5146840;28;20248;-59
2021/09/30 06:54:37;;;;;;;2.70;2.50;;;10.90;99.90;;;12.64;68.23;99167.63;5138921;28;20259;-59
2021/09/30 06:57:10;;;;;;;3.45;3.10;;;11.00;99.90;;;12.79;67.58;99162.66;5142207;28;20210;-58
2021/09/30 06:59:45;;;;;;;3.25;2.85;;;11.20;99.90;;;12.78;67.26;99163.44;5143295;28;20196;-59
2021/09/30 07:02:22;;;;;;;4.82;3.20;;;11.30;99.90;;;12.87;67.79;99170.88;5143408;28;20230;-58
2021/09/30 07:04:56;;;;;;;2.47;2.28;;;11.40;99.90;;;12.89;68.42;99170.22;5142603;28;20238;-57
2021/09/30 07:07:29;;;;;;;2.10;2.00;;;11.50;99.90;;;13.14;67.38;99166.78;5138700;28;20203;-58
2021/09/30 07:10:04;;;;;;;2.60;2.40;;;11.80;99.90;;;13.24;67.70;99166.59;5141105;28;20210;-58
2021/09/30 07:12:38;;;;;;;3.75;2.17;;;11.90;99.90;;;13.32;66.54;99165.47;5151148;28;20225;-59
2021/09/30 07:15:12;;;;;;;3.58;2.30;;;12.10;99.90;;;13.35;67.35;99159.66;5141406;28;20204;-58
2021/09/30 07:17:45;;;;;;;2.40;2.20;;;12.20;99.90;;;13.54;67.30;99164.34;5138043;28;20250;-58
2021/09/30 07:20:19;;;;;;;2.40;2.08;;;12.30;99.90;;;13.80;66.52;99163.50;5143418;28;20211;-58
2021/09/30 07:22:52;;;;;;;2.33;2.22;;;12.50;99.90;;;14.02;66.07;99165.75;5141959;28;20227;-57
2021/09/30 07:25:25;;;;;;;2.92;2.50;;;12.80;99.90;;;14.25;65.15;99155.28;5134374;28;20196;-57
2021/09/30 07:27:59;;;;;;;3.08;2.65;;;13.00;99.90;;;14.36;64.78;99156.81;5144100;28;20224;-57
2021/09/30 07:30:33;;;;;;;2.97;2.67;;;13.10;99.90;;;14.40;64.85;99165.66;5142750;28;20289;-59
2021/09/30 07:33:09;;;;;;;3.55;2.63;;;13.20;99.90;;;14.63;63.12;99172.28;5139794;28;20234;-58
2021/09/30 07:35:44;;;;;;;2.63;2.42;;;13.50;99.90;;;14.44;62.38;99162.47;5135633;28;20938;-56
2021/09/30 07:38:17;;;;;;;3.38;2.78;;;13.50;99.90;;;14.58;62.80;99160.78;5138920;28;20211;-58
2021/09/30 07:40:50;;;;;;;3.22;2.60;;;13.60;99.90;;;14.84;62.94;99160.72;5141598;28;20306;-59
2021/09/30 07:43:24;;;;;;;3.60;2.85;;;13.90;99.90;;;14.90;62.38;99172.19;5146853;28;20295;-58
2021/09/30 07:45:57;;;;;;;3.30;3.00;;;14.00;99.90;;;15.10;61.34;99164.88;5141743;28;20210;-56
2021/09/30 07:48:30;;;;;;;3.05;2.75;;;14.00;99.90;;;15.24;61.27;99173.44;5140767;28;20757;-58
2021/09/30 07:51:07;;;;;;;2.47;2.28;;;14.20;99.90;;;15.37;60.12;99171.59;5140640;28;20223;-58
2021/09/30 07:53:40;;;;;;;2.40;2.10;;;14.40;99.90;;;15.31;60.94;99173.00;5139437;28;20203;-56
2021/09/30 07:56:13;;;;;;;2.67;2.13;;;14.40;99.90;;;15.33;60.62;99162.78;5142324;28;20610;-58
2021/09/30 07:58:46;;;;;;;2.45;2.00;;;14.50;99.90;;;15.76;58.67;99166.19;5146401;28;20227;-59
2021/09/30 08:01:20;;;;;;;3.50;1.90;;;14.70;99.90;;;15.75;58.35;99174.75;5140380;28;20234;-59
2021/09/30 08:03:54;;;;;;;3.83;2.20;;;14.80;99.90;;;15.81;59.34;99169.06;5142087;28;20306;-58
2021/09/30 08:06:28;;;;;;;2.30;1.90;;;15.00;99.90;;;15.98;58.92;99175.19;5145582;28;20250;-58
2021/09/30 08:09:01;;;;;;;2.80;1.80;;;15.30;99.90;;;16.08;57.68;99169.75;5137381;28;20589;-56
2021/09/30 08:11:35;;;;;;;4.75;2.03;;;15.20;99.90;;;16.20;57.97;99173.03;5135715;28;20700;-59
2021/09/30 08:14:08;;;;;;;3.53;2.08;;;15.30;99.90;;;16.27;57.86;99165.63;5142571;28;20204;-56
2021/09/30 08:16:41;;;;;;;3.13;2.00;;;15.40;99.90;;;16.46;56.64;99171.00;5141768;28;20286;-56
2021/09/30 08:19:15;;;;;;;2.92;2.05;;;15.50;99.90;;;16.38;56.42;99170.56;5141887;28;20675;-57
2021/09/30 08:21:50;;;;;;;2.20;2.00;;;15.50;99.90;;;16.46;56.22;99163.25;5140927;28;20258;-57
2021/09/30 08:24:23;;;;;;;1.90;1.70;;;15.40;99.90;;;16.52;56.18;99170.44;5137281;28;20219;-58
2021/09/30 08:26:56;;;;;;;2.28;1.85;;;15.50;99.90;;;16.43;56.24;99168.25;5141921;28;20208;-58
2021/09/30 08:29:29;;;;;;;4.10;1.83;;;15.50;99.90;;;16.51;55.18;99163.50;5144748;28;20698;-57
2021/09/30 08:32:03;;;;;;;2.03;1.77;;;15.60;99.90;;;16.49;55.36;99168.59;5142661;28;20224;-58
2021/09/30 08:34:36;;;;;;;2.10;1.77;;;15.40;99.90;;;16.49;55.90;99157.38;5138508;28;20210;-58
2021/09/30 08:37:10;;;;;;;2.65;1.88;;;15.30;99.90;;;16.41;55.81;99160.41;5140726;28;20208;-58
2021/09/30 08:39:43;;;;;;;3.00;1.83;;;15.20;99.90;;;16.47;54.52;99165.03;5138970;28;20207;-59
2021/09/30 08:42:16;;;;;;;2.35;1.80;;;15.20;99.90;;;16.36;55.13;99155.78;5136652;28;20640;-58
2021/09/30 08:44:51;;;;;;;2.63;1.73;;;15.20;99.90;;;16.36;54.89;99153.22;5138384;28;20301;-58
2021/09/30 08:47:24;;;;;;;2.15;1.85;;;15.00;99.90;;;16.07;56.37;99156.75;5140773;28;20206;-58
2021/09/30 08:49:58;;;;;;;2.75;1.80;;;14.70;99.90;;;16.02;56.08;99156.50;5140373;28;20680;-59
2021/09/30 08:52:32;;;;;;;3.65;1.70;;;14.80;99.90;;;16.07;56.11;99147.31;5138718;28;20222;-58
2021/09/30 08:55:06;;;;;;;2.25;1.63;;;14.90;99.90;;;16.08;56.47;99149.13;5137189;28;20199;-57
2021/09/30 08:57:46;;;;;;;3.10;1.75;;;14.90;99.90;;;16.18;55.48;99145.34;5137980;28;20290;-57
2021/09/30 09:00:21;;;;;;;2.15;1.70;;;15.00;99.90;;;16.16;55.23;99152.13;5140267;28;20198;-55
2021/09/30 09:02:54;;;;;;;2.78;1.70;;;14.80;99.90;;;16.05;55.37;99146.34;5138243;28;20326;-56
2021/09/30 09:05:27;;;;;;;2.92;1.73;;;14.60;99.90;;;15.82;54.94;99139.88;5139636;28;20228;-56
2021/09/30 09:08:08;;;;;;;3.20;1.63;;;14.60;99.90;;;15.72;56.99;99147.91;5136138;28;20214;-58
2021/09/30 09:10:43;;;;;;;2.50;1.90;;;14.50;99.90;;;15.83;56.47;99146.84;5136192;28;20206;-56
2021/09/30 09:13:19;;;;;;;3.53;1.83;;;14.50;99.90;;;15.86;56.20;99140.97;5134448;28;20208;-56
2021/09/30 09:15:57;;;;;;;1.80;1.70;;;14.80;99.90;;;15.76;56.06;99148.16;5136873;28;20221;-54
2021/09/30 09:18:32;;;;;;;2.28;1.70;;;14.70;99.90;;;15.71;56.16;99143.56;5144864;28;20453;-56
2021/09/30 09:21:10;;;;;;;2.80;1.95;;;14.60;99.90;;;15.67;57.03;99139.88;5145297;28;20230;-53
2021/09/30 09:23:56;;;;;;;2.17;2.00;;;14.50;99.90;;;15.69;56.84;99137.44;5144205;28;20207;-54
2021/09/30 09:26:32;;;;;;;3.25;1.65;;;14.50;99.90;;;15.90;54.97;99135.19;5143219;28;20331;-57
2021/09/30 09:29:09;;;;;;;2.65;1.92;;;14.80;99.90;;;15.99;54.65;99130.53;5143436;28;20212;-57
2021/09/30 09:31:45;;;;;;;2.13;1.77;;;15.00;99.90;;;16.07;54.24;99126.69;5145358;28;20224;-54
2021/09/30 09:34:22;;;;;;;2.38;1.70;;;15.20;99.90;;;16.36;53.64;99137.72;5150899;28;20703;-54
2021/09/30 09:37:19;;;;;;;1.60;1.50;;;15.40;99.90;;;16.50;52.01;99129.06;5154066;28;20221;-56
2021/09/30 09:39:53;;;;;;;1.92;1.60;;;15.50;99.00;;;16.34;52.38;99131.59;5144381;28;20200;-55
2021/09/30 09:42:31;;;;;;;2.10;1.70;;;15.50;99.00;;;16.41;52.15;99134.59;5143640;28;20596;-56
2021/09/30 09:45:10;;;;;;;2.72;1.42;;;15.50;99.10;;;16.54;50.30;99143.91;5139015;28;20200;-54
2021/09/30 09:47:45;;;;;;;2.28;1.50;;;15.50;98.00;;;16.40;50.59;99138.00;5141541;28;20287;-56
2021/09/30 09:50:21;;;;;;;3.28;1.60;;;15.50;98.00;;;16.36;51.84;99135.16;5139140;28;20310;-56
2021/09/30 09:52:56;;;;;;;3.15;1.63;;;15.30;99.00;;;16.28;51.52;99133.84;5143137;28;20310;-54
2021/09/30 09:55:35;;;;;;;2.00;1.52;;;15.20;98.80;;;16.11;51.07;99126.09;5148979;28;20206;-54
2021/09/30 09:58:11;;;;;;;2.05;1.80;;;15.00;97.80;;;15.94;51.45;99132.00;5141593;28;20191;-56
2021/09/30 10:01:01;;;;;;;3.40;2.03;;;14.90;98.40;;;15.85;52.21;99128.88;5148250;28;20199;-56
2021/09/30 10:03:34;;;;;;;2.47;1.80;;;14.60;99.10;;;15.85;52.16;99128.88;5141844;28;20195;-54
2021/09/30 10:06:08;;;;;;;3.25;1.60;;;14.60;99.30;;;15.88;52.67;99114.47;5143562;28;20215;-55
2021/09/30 10:08:41;;;;;;;1.83;1.40;;;14.80;99.40;;;15.89;52.76;99115.34;5143262;28;20611;-55
2021/09/30 10:11:16;;;;;;;4.57;2.35;;;15.00;99.00;;;15.98;53.11;99105.56;5144187;28;20231;-53
2021/09/30 10:13:50;;;;;;;3.17;2.10;;;15.00;99.60;;;16.10;51.59;99101.06;5147784;28;20196;-56
2021/09/30 10:16:27;;;;;;;2.63;1.70;;;15.10;98.70;;;16.04;52.45;99100.72;5140692;28;20192;-53
2021/09/30 10:19:02;;;;;;;3.40;2.03;;;15.10;99.10;;;16.01;52.98;99104.84;5144443;28;20195;-56
2021/09/30 10:21:38;;;;;;;3.05;2.00;;;15.00;99.70;;;16.11;51.94;99095.13;5142370;28;20223;-53
2021/09/30 10:24:16;;;;;;;1.60;1.50;;;15.30;98.70;;;16.13;52.60;99095.19;5142884;28;20715;-56
2021/09/30 10:26:54;;;;;;;1.92;1.73;;;15.30;99.00;;;16.36;51.75;99094.75;5145689;28;20327;-53
2021/09/30 10:29:40;;;;;;;3.92;1.60;;;15.50;98.40;;;16.46;51.40;99097.84;5143635;28;20221;-53
2021/09/30 10:32:17;;;;;;;4.20;1.70;;;15.60;98.10;;;16.53;50.69;99094.78;5140004;28;20250;-56
2021/09/30 10:34:57;;;;;;;3.05;2.00;;;15.60;97.80;;;16.51;50.54;99101.53;5135042;28;20294;-53
2021/09/30 10:37:32;;;;;;;2.88;1.40;;;15.70;96.70;;;16.51;48.98;99089.56;5140943;28;20194;-56
2021/09/30 10:40:16;;;;;;;1.73;1.48;;;15.60;96.60;;;16.43;48.71;99093.41;5138819;28;20231;-53
2021/09/30 10:42:56;;;;;;;1.90;1.50;;;15.60;95.80;;;16.48;49.15;99091.94;5141559;28;20249;-54
2021/09/30 10:45:40;;;;;;;1.83;1.55;;;15.70;95.60;;;16.57;48.22;99083.81;5140436;28;20218;-55
2021/09/30 10:48:42;;;;;;;3.38;1.60;;;15.90;95.60;;;16.76;45.91;99080.50;5133771;28;20271;-54
2021/09/30 10:51:18;;;;;;;1.63;1.52;;;16.00;94.40;;;16.65;46.43;99072.19;5139288;28;20227;-57
2021/09/30 10:54:00;;;;;;;3.00;1.50;;;15.80;93.80;;;16.63;46.58;99069.53;5142442;28;20671;-57
2021/09/30 10:56:40;;;;;;;2.35;1.60;;;15.80;94.40;;;16.27;45.86;99077.91;5138453;28;20286;-56
2021/09/30 10:59:42;;;;;;;1.50;1.23;;;15.60;93.60;;;16.35;45.05;99074.03;5141955;28;20286;-55
2021/09/30 11:02:16;;;;;;;1.92;1.30;;;15.50;93.30;;;16.34;46.36;99075.75;5137493;28;20326;-56
2021/09/30 11:05:09;;;;;;;1.60;1.50;;;15.50;93.80;;;16.28;46.79;99070.25;5139970;28;20214;-54
2021/09/30 11:07:42;;;;;;;2.03;1.50;;;15.40;94.20;;;16.17;47.11;99071.34;5142123;28;20274;-56
2021/09/30 11:10:18;;;;;;;3.30;1.70;;;15.30;94.30;;;16.12;48.38;99068.53;5138112;28;20220;-56
2021/09/30 11:13:18;;;;;;;4.18;1.55;;;15.20;95.60;;;16.25;47.83;99064.91;5143905;28;20230;-57
2021/09/30 11:16:05;;;;;;;3.08;1.42;;;15.30;95.20;;;16.31;47.42;99060.09;5138452;28;20204;-57
2021/09/30 11:18:49;;;;;;;1.73;1.35;;;15.40;94.30;;;16.52;45.83;99055.19;5140105;28;20676;-57
2021/09/30 11:21:46;;;;;;;2.08;1.55;;;15.70;93.60;;;16.70;45.17;99054.38;5142114;28;20235;-57
2021/09/30 11:24:43;;;;;;;3.58;1.27;;;15.70;93.50;;;16.74;45.50;99061.44;5141293;28;20302;-56
2021/09/30 11:27:23;;;;;;;1.48;1.30;;;15.90;93.70;;;16.69;46.06;99052.59;5141157;28;20302;-56
2021/09/30 11:30:20;;;;;;;3.67;1.67;;;15.90;93.70;;;16.65;47.04;99052.44;5145125;28;20302;-56
2021/09/30 11:32:59;;;;;;;2.55;1.50;;;15.90;94.40;;;16.81;46.47;99053.25;5137347;28;20319;-57
2021/09/30 11:35:32;;;;;;;3.08;1.50;;;16.00;93.40;;;16.75;44.70;99043.47;5145109;28;20601;-57
2021/09/30 11:38:05;;;;;;;3.03;1.45;;;15.90;92.50;;;16.72;44.30;99037.28;5139680;28;20204;-58
2021/09/30 11:40:39;;;;;;;1.20;1.20;;;15.90;92.40;;;16.80;43.97;99030.84;5143127;28;20224;-57
2021/09/30 11:43:12;;;;;;;2.92;1.17;;;15.90;92.30;;;16.79;43.97;99029.03;5139319;28;20560;-57
2021/09/30 11:45:46;;;;;;;2.13;1.50;;;15.80;92.40;;;16.77;44.12;99025.50;5135082;28;20305;-56
2021/09/30 11:48:20;;;;;;;2.45;1.30;;;15.90;92.30;;;16.74;44.08;99025.31;5139657;28;20199;-56
2021/09/30 11:50:56;;;;;;;2.00;1.30;;;15.80;92.20;;;16.84;44.20;99028.47;5139535;28;20266;-57
2021/09/30 11:53:30;;;;;;;1.50;1.38;;;15.90;92.40;;;16.84;44.30;99019.84;5133486;28;20202;-57
2021/09/30 11:56:10;;;;;;;2.70;1.42;;;15.90;92.10;;;17.09;44.41;99016.81;5141688;28;20203;-54
2021/09/30 11:58:43;;;;;;;1.92;1.30;;;16.00;92.50;;;17.16;43.81;99005.09;5145960;28;20206;-57
2021/09/30 12:01:33;;;;;;;2.75;1.48;;;16.30;92.10;;;17.46;43.49;99011.75;5136059;28;20319;-56
2021/09/30 12:04:09;;;;;;;1.55;1.45;;;16.50;92.30;;;17.54;43.52;99010.44;5142058;28;20204;-56
2021/09/30 12:06:45;;;;;;;2.70;1.60;;;16.60;92.00;;;17.39;43.12;98999.34;5142393;28;20200;-57
2021/09/30 12:09:19;;;;;;;2.60;1.52;;;16.50;91.30;;;17.48;42.41;98998.88;5149425;28;20249;-57
2021/09/30 12:11:54;;;;;;;3.75;1.55;;;16.60;90.80;;;17.29;43.56;99002.31;5146258;28;20555;-57
2021/09/30 12:14:36;;;;;;;1.95;1.30;;;16.40;91.80;;;17.17;44.23;98996.50;5135773;28;20200;-59
2021/09/30 12:17:12;;;;;;;1.83;1.40;;;16.40;92.10;;;17.19;43.20;98992.31;5138142;28;20295;-59
2021/09/30 12:19:49;;;;;;;1.98;1.58;;;16.40;91.50;;;16.92;44.80;98986.69;5139388;28;20502;-59
2021/09/30 12:22:28;;;;;;;1.33;1.33;;;16.10;92.20;;;16.77;43.82;98989.34;5136604;28;20239;-60
2021/09/30 12:25:07;;;;;;;2.25;1.40;;;16.00;92.00;;;16.77;44.30;98984.19;5137693;28;20203;-59
2021/09/30 12:27:44;;;;;;;1.65;1.35;;;15.90;92.00;;;16.63;45.20;98980.88;5140819;28;20210;-58
2021/09/30 12:30:20;;;;;;;2.22;1.30;;;15.70;92.60;;;16.59;46.53;98977.22;5141805;28;20864;-58
2021/09/30 12:32:56;;;;;;;2.55;1.60;;;15.80;93.30;;;16.64;46.86;98973.19;5136098;28;20223;-59
2021/09/30 12:35:35;;;;;;;2.28;1.40;;;15.80;93.60;;;16.70;45.24;98971.75;5142421;28;20668;-59
2021/09/30 12:38:13;;;;;;;2.25;1.50;;;15.90;92.70;;;16.81;44.72;98962.88;5142143;28;20212;-57
2021/09/30 12:40:49;;;;;;;2.22;1.45;;;16.00;92.40;;;16.76;45.73;98959.16;5140641;28;20857;-59
2021/09/30 12:43:29;;;;;;;2.17;1.98;;;15.80;92.90;;;16.75;44.65;98957.38;5137596;28;20231;-59
2021/09/30 12:46:05;;;;;;;2.47;1.60;;;15.90;92.50;;;16.81;44.24;98960.31;5136193;28;20282;-59
2021/09/30 12:48:39;;;;;;;2.00;1.40;;;15.90;92.20;;;16.65;45.97;98954.34;5141839;28;20290;-59
2021/09/30 12:51:18;;;;;;;2.10;1.33;;;15.90;93.00;;;16.51;47.45;98946.69;5147290;28;20405;-60
2021/09/30 12:53:53;;;;;;;2.53;1.30;;;15.80;93.80;;;16.54;47.73;98950.31;5153072;28;20202;-60
2021/09/30 12:56:31;;;;;;;1.55;1.40;;;15.80;94.10;;;16.58;44.71;98952.25;5141284;28;20195;-58
2021/09/30 12:59:13;;;;;;;1.58;1.27;;;15.80;92.30;;;16.60;43.84;98944.59;5145426;28;20199;-58
2021/09/30 13:01:47;;;;;;;1.60;1.40;;;15.80;91.70;;;16.60;43.81;98935.16;5140038;28;20223;-59
2021/09/30 13:04:23;;;;;;;1.73;1.30;;;15.80;91.70;;;16.73;44.57;98939.22;5142635;28;20239;-59
2021/09/30 13:07:01;;;;;;;1.40;1.30;;;15.80;92.00;;;16.75;45.60;98939.31;5147576;28;20598;-59
2021/09/30 13:09:37;;;;;;;2.15;1.40;;;15.90;92.60;;;16.65;45.23;98933.69;5140287;28;20286;-58
2021/09/30 13:12:14;;;;;;;3.17;1.60;;;15.90;92.00;;;16.55;44.33;98926.28;5140396;28;20239;-58
2021/09/30 13:14:49;;;;;;;3.28;1.63;;;15.80;91.30;;;16.55;44.55;98926.28;5143321;28;20496;-57
2021/09/30 13:17:23;;;;;;;2.78;1.58;;;15.80;92.50;;;16.64;44.97;98910.38;5141336;28;20209;-60
2021/09/30 13:19:59;;;;;;;2.08;1.60;;;15.90;92.50;;;16.77;43.45;98907.63;5140020;28;20199;-60